createdAt,value
2023-09-23T00:02:01.057Z,95402.78
2023-09-23T00:04:32.778Z,95413.31
2023-09-23T00:07:00.085Z,95387.03
2023-09-23T00:17:34.168Z,95385.84
2023-09-23T00:33:41.358Z,95248.03
2023-09-23T00:36:11.472Z,95395.53
2023-09-23T00:41:26.582Z,95210.81
2023-09-23T00:44:06.576Z,95256.25
2023-09-23T00:46:46.043Z,95169.84
2023-09-23T00:49:18.388Z,95406.78
2023-09-23T00:51:47.434Z,95406.41
2023-09-23T00:54:24.081Z,95368.22
2023-09-23T01:07:41.738Z,95407.22
2023-09-23T01:13:03.143Z,95424.34
2023-09-23T01:18:25.248Z,95424.81
2023-09-23T01:26:38.305Z,95413.53
2023-09-23T01:29:15.335Z,95387.28
2023-09-23T01:31:46.377Z,95181.16
2023-09-23T06:46:42.188Z,95820.66
2023-09-23T06:49:09.706Z,95733.19
2023-09-23T06:51:39.328Z,95579.91
2023-09-23T06:54:06.807Z,95579.34
2023-09-23T06:56:38.639Z,95507.50
2023-09-23T06:59:05.981Z,95518.06
2023-09-23T07:01:36.535Z,95859.75
2023-09-23T07:04:04.149Z,95646.56
2023-09-23T07:06:31.456Z,95854.94
2023-09-23T07:08:58.612Z,95701.75
2023-09-23T07:11:28.575Z,95542.66
2023-09-23T07:13:57.079Z,95811.25
2023-09-23T07:16:24.122Z,95748.09
2023-09-23T07:18:51.756Z,95699.94
2023-09-23T07:21:18.885Z,95740.78
2023-09-23T07:23:46.338Z,95696.47
2023-09-23T07:26:21.834Z,95720.00
2023-09-23T07:28:51.881Z,95791.63
2023-09-23T07:31:19.616Z,95876.59
2023-09-23T07:33:47.029Z,95832.06
2023-09-23T07:36:14.855Z,95816.81
2023-09-23T07:38:42.348Z,95872.91
2023-09-23T07:41:09.474Z,95696.06
2023-09-23T07:43:36.688Z,95620.72
2023-09-23T07:46:03.843Z,95874.25
2023-09-23T07:48:30.833Z,95730.19
2023-09-23T07:50:57.873Z,95794.16
2023-09-23T07:53:25.154Z,95625.56
2023-09-23T07:55:52.238Z,95792.97
2023-09-23T07:58:19.343Z,95835.78
2023-09-23T08:00:46.304Z,95861.66
2023-09-23T08:03:13.439Z,95720.66
2023-09-23T08:05:40.687Z,95883.38
2023-09-23T08:08:07.737Z,95868.63
2023-09-23T08:10:34.840Z,95832.03
2023-09-23T08:13:01.866Z,95818.00
2023-09-23T08:15:28.836Z,95824.56
2023-09-23T08:17:55.945Z,95905.69
2023-09-23T08:20:25.536Z,95914.19
2023-09-23T08:22:52.673Z,95778.34
2023-09-23T08:25:19.792Z,95886.47
2023-09-23T08:27:48.008Z,95826.03
2023-09-23T08:30:18.844Z,95931.25
2023-09-23T08:32:47.239Z,95851.59
2023-09-23T08:35:14.532Z,95710.31
2023-09-23T08:37:41.830Z,95827.56
2023-09-23T08:40:12.584Z,95911.63
2023-09-23T08:42:40.319Z,95869.06
2023-09-23T08:45:11.304Z,95951.25
2023-09-23T08:47:39.536Z,95810.66
2023-09-23T08:50:10.185Z,96002.66
2023-09-23T08:52:37.582Z,95728.31
2023-09-23T08:55:08.970Z,95948.94
2023-09-23T08:57:36.020Z,95898.47
2023-09-23T09:00:08.773Z,95975.50
2023-09-23T09:02:36.010Z,95885.16
2023-09-23T09:05:03.596Z,95870.03
2023-09-23T09:07:37.769Z,96032.91
2023-09-23T09:10:06.505Z,95793.50
2023-09-23T09:12:37.080Z,95746.59
2023-09-23T09:15:09.040Z,95767.00
2023-09-23T09:17:38.596Z,95729.28
2023-09-23T09:20:13.175Z,95858.78
2023-09-23T09:22:41.437Z,95906.19
2023-09-23T09:25:13.405Z,96026.56
2023-09-23T09:27:40.782Z,95995.09
2023-09-23T09:30:14.286Z,95877.69
2023-09-23T09:32:46.426Z,95929.91
2023-09-23T09:35:15.503Z,95917.72
2023-09-23T09:38:03.568Z,95716.69
2023-09-23T09:40:51.618Z,95842.16
2023-09-23T09:43:23.372Z,95756.22
2023-09-23T11:23:03.628Z,95876.66
2023-09-23T11:25:45.497Z,95993.31
2023-09-23T11:34:04.161Z,95758.59
2023-09-23T11:40:15.030Z,95773.19
2023-09-23T11:42:52.585Z,96067.63
2023-09-23T13:01:06.820Z,95975.84
2023-09-23T13:04:04.067Z,96115.81
2023-09-23T13:06:42.611Z,96105.50
2023-09-23T13:09:44.405Z,96113.41
2023-09-23T13:12:21.509Z,96107.00
2023-09-23T17:55:56.136Z,95997.66
2023-09-23T17:58:25.312Z,96047.22
2023-09-23T18:00:56.046Z,96191.78
2023-09-23T18:03:35.108Z,96210.81
2023-09-23T18:27:31.293Z,96270.34
2023-09-23T18:30:15.230Z,96317.38
2023-09-23T18:32:54.463Z,96404.03
2023-09-23T18:35:23.832Z,96060.16
2023-09-23T19:33:39.341Z,96256.38
2023-09-23T19:36:13.743Z,96490.59
2023-09-23T19:50:13.709Z,96435.56
2023-09-23T19:55:25.418Z,96250.13
2023-09-23T19:57:56.611Z,96416.28
2023-09-23T23:21:45.731Z,96460.66
2023-09-23T23:24:14.202Z,96618.59
2023-09-23T23:26:41.589Z,96428.13
2023-09-23T23:29:17.534Z,96614.78
2023-09-23T23:31:46.600Z,96271.69
2023-09-23T23:36:58.120Z,96624.75
2023-09-23T23:39:39.562Z,96336.06
2023-09-23T23:42:07.805Z,96627.09
2023-09-23T23:44:36.717Z,96629.84
2023-09-23T23:52:32.788Z,96627.81
